sensor_id;sensor_type;location;lat;lon;timestamp;pressure;altitude;pressure_sealevel;temperature;humidity
77410;BME280;66481;51.332;22.804;2024-03-07T00:00:50;100371.50;;;-1.84;100.00
77410;BME280;66481;51.332;22.804;2024-03-07T00:05:07;100366.34;;;-1.89;100.00
77410;BME280;66481;51.332;22.804;2024-03-07T00:09:10;100377.56;;;-1.87;100.00
77410;BME280;66481;51.332;22.804;2024-03-07T00:13:12;100373.13;;;-1.79;100.00
77410;BME280;66481;51.332;22.804;2024-03-07T00:17:13;100370.38;;;-1.65;100.00
77410;BME280;66481;51.332;22.804;2024-03-07T00:21:14;100374.81;;;-1.13;100.00
77410;BME280;66481;51.332;22.804;2024-03-07T00:25:15;100369.69;;;-1.16;100.00
77410;BME280;66481;51.332;22.804;2024-03-07T00:29:20;100365.53;;;-1.27;100.00
77410;BME280;66481;51.332;22.804;2024-03-07T00:33:21;100351.44;;;-1.13;100.00
77410;BME280;66481;51.332;22.804;2024-03-07T00:37:23;100347.13;;;-1.12;100.00
77410;BME280;66481;51.332;22.804;2024-03-07T00:41:25;100345.22;;;-1.02;100.00
77410;BME280;66481;51.332;22.804;2024-03-07T00:45:27;100351.16;;;-0.94;99.67
77410;BME280;66481;51.332;22.804;2024-03-07T00:49:29;100352.91;;;-0.93;98.90
77410;BME280;66481;51.332;22.804;2024-03-07T00:53:31;100340.75;;;-0.92;98.85
77410;BME280;66481;51.332;22.804;2024-03-07T00:57:32;100342.34;;;-0.84;97.65
77410;BME280;66481;51.332;22.804;2024-03-07T01:01:33;100326.78;;;-0.85;96.74
77410;BME280;66481;51.332;22.804;2024-03-07T01:05:37;100315.59;;;-0.90;95.85
77410;BME280;66481;51.332;22.804;2024-03-07T01:09:39;100313.16;;;-1.00;96.10
77410;BME280;66481;51.332;22.804;2024-03-07T01:13:41;100318.47;;;-1.07;95.78
77410;BME280;66481;51.332;22.804;2024-03-07T01:17:42;100317.69;;;-1.13;95.65
77410;BME280;66481;51.332;22.804;2024-03-07T01:21:45;100311.81;;;-1.22;95.96
77410;BME280;66481;51.332;22.804;2024-03-07T01:25:47;100325.63;;;-1.20;95.81
77410;BME280;66481;51.332;22.804;2024-03-07T01:29:49;100327.41;;;-1.24;95.75
77410;BME280;66481;51.332;22.804;2024-03-07T01:33:51;100322.25;;;-1.27;96.09
77410;BME280;66481;51.332;22.804;2024-03-07T01:37:52;100330.84;;;-1.23;95.76
77410;BME280;66481;51.332;22.804;2024-03-07T01:41:54;100331.75;;;-1.24;95.20
77410;BME280;66481;51.332;22.804;2024-03-07T01:45:56;100325.00;;;-1.36;95.81
77410;BME280;66481;51.332;22.804;2024-03-07T01:50:00;100327.72;;;-1.45;96.69
77410;BME280;66481;51.332;22.804;2024-03-07T01:54:03;100330.38;;;-1.48;96.10
77410;BME280;66481;51.332;22.804;2024-03-07T01:58:05;100340.72;;;-1.47;96.58
77410;BME280;66481;51.332;22.804;2024-03-07T02:02:11;100343.25;;;-1.42;96.37
77410;BME280;66481;51.332;22.804;2024-03-07T02:06:12;100341.38;;;-1.33;95.98
77410;BME280;66481;51.332;22.804;2024-03-07T02:10:14;100336.19;;;-1.33;95.54
77410;BME280;66481;51.332;22.804;2024-03-07T02:14:15;100341.38;;;-1.31;95.51
77410;BME280;66481;51.332;22.804;2024-03-07T02:18:17;100337.94;;;-1.33;94.69
77410;BME280;66481;51.332;22.804;2024-03-07T02:22:19;100333.66;;;-1.39;94.92
77410;BME280;66481;51.332;22.804;2024-03-07T02:26:20;100331.06;;;-1.39;94.38
77410;BME280;66481;51.332;22.804;2024-03-07T02:30:21;100337.94;;;-1.33;93.97
77410;BME280;66481;51.332;22.804;2024-03-07T02:34:22;100323.22;;;-1.33;93.47
77410;BME280;66481;51.332;22.804;2024-03-07T02:38:23;100322.38;;;-1.33;93.27
77410;BME280;66481;51.332;22.804;2024-03-07T02:42:25;100318.03;;;-1.33;91.91
77410;BME280;66481;51.332;22.804;2024-03-07T02:46:26;100324.19;;;-1.40;91.96
77410;BME280;66481;51.332;22.804;2024-03-07T02:50:27;100330.25;;;-1.41;92.08
77410;BME280;66481;51.332;22.804;2024-03-07T02:54:28;100325.13;;;-1.45;92.69
77410;BME280;66481;51.332;22.804;2024-03-07T02:58:29;100329.47;;;-1.47;92.94
77410;BME280;66481;51.332;22.804;2024-03-07T03:02:30;100328.66;;;-1.49;92.67
77410;BME280;66481;51.332;22.804;2024-03-07T03:06:32;100340.81;;;-1.53;93.32
77410;BME280;66481;51.332;22.804;2024-03-07T03:10:33;100340.84;;;-1.58;93.98
77410;BME280;66481;51.332;22.804;2024-03-07T03:14:35;100347.75;;;-1.54;94.50
77410;BME280;66481;51.332;22.804;2024-03-07T03:18:36;100346.00;;;-1.53;94.33
77410;BME280;66481;51.332;22.804;2024-03-07T03:22:37;100348.59;;;-1.53;94.24
77410;BME280;66481;51.332;22.804;2024-03-07T03:26:39;100339.97;;;-1.55;94.07
77410;BME280;66481;51.332;22.804;2024-03-07T03:30:43;100339.94;;;-1.52;94.41
77410;BME280;66481;51.332;22.804;2024-03-07T03:34:44;100355.53;;;-1.54;94.43
77410;BME280;66481;51.332;22.804;2024-03-07T03:38:45;100360.63;;;-1.49;94.14
77410;BME280;66481;51.332;22.804;2024-03-07T03:42:46;100358.09;;;-1.50;94.79
77410;BME280;66481;51.332;22.804;2024-03-07T03:46:48;100348.66;;;-1.59;94.70
77410;BME280;66481;51.332;22.804;2024-03-07T03:50:50;100347.00;;;-1.63;94.63
77410;BME280;66481;51.332;22.804;2024-03-07T03:54:51;100347.03;;;-1.66;95.32
77410;BME280;66481;51.332;22.804;2024-03-07T03:58:53;100348.78;;;-1.68;95.06
77410;BME280;66481;51.332;22.804;2024-03-07T04:02:54;100351.38;;;-1.68;94.48
77410;BME280;66481;51.332;22.804;2024-03-07T04:06:55;100356.59;;;-1.68;94.94
77410;BME280;66481;51.332;22.804;2024-03-07T04:10:57;100349.69;;;-1.69;94.75
77410;BME280;66481;51.332;22.804;2024-03-07T04:14:59;100354.75;;;-1.62;94.51
77410;BME280;66481;51.332;22.804;2024-03-07T04:19:01;100355.72;;;-1.67;94.76
77410;BME280;66481;51.332;22.804;2024-03-07T04:23:03;100353.91;;;-1.61;94.69
77410;BME280;66481;51.332;22.804;2024-03-07T04:27:05;100352.22;;;-1.66;94.92
77410;BME280;66481;51.332;22.804;2024-03-07T04:31:06;100350.53;;;-1.69;94.68
77410;BME280;66481;51.332;22.804;2024-03-07T04:35:10;100348.00;;;-1.74;94.45
77410;BME280;66481;51.332;22.804;2024-03-07T04:39:13;100337.81;;;-1.87;94.95
77410;BME280;66481;51.332;22.804;2024-03-07T04:43:41;100344.00;;;-1.99;95.29
77410;BME280;66481;51.332;22.804;2024-03-07T04:47:44;100346.66;;;-2.02;95.85
77410;BME280;66481;51.332;22.804;2024-03-07T04:51:45;100343.31;;;-2.15;95.84
77410;BME280;66481;51.332;22.804;2024-03-07T04:55:46;100347.63;;;-2.13;96.48
77410;BME280;66481;51.332;22.804;2024-03-07T04:59:48;100356.31;;;-2.18;97.34
77410;BME280;66481;51.332;22.804;2024-03-07T05:03:50;100355.50;;;-2.22;97.11
77410;BME280;66481;51.332;22.804;2024-03-07T05:07:54;100365.94;;;-2.27;97.96
77410;BME280;66481;51.332;22.804;2024-03-07T05:11:56;100371.03;;;-2.20;98.04
77410;BME280;66481;51.332;22.804;2024-03-07T05:15:58;100380.41;;;-2.07;98.03
77410;BME280;66481;51.332;22.804;2024-03-07T05:20:01;100384.31;;;-1.74;97.84
77410;BME280;66481;51.332;22.804;2024-03-07T05:24:04;100392.53;;;-1.39;97.83
77410;BME280;66481;51.332;22.804;2024-03-07T05:28:05;100392.84;;;-1.00;96.63
77410;BME280;66481;51.332;22.804;2024-03-07T05:32:25;100392.31;;;-0.68;95.52
77410;BME280;66481;51.332;22.804;2024-03-07T05:36:30;100373.78;;;-0.48;93.68
77410;BME280;66481;51.332;22.804;2024-03-07T05:40:32;100367.13;;;-0.16;92.96
77410;BME280;66481;51.332;22.804;2024-03-07T05:44:34;100350.94;;;0.13;91.29
77410;BME280;66481;51.332;22.804;2024-03-07T05:48:35;100341.78;;;0.36;90.04
77410;BME280;66481;51.332;22.804;2024-03-07T05:52:38;100344.66;;;1.00;88.54
77410;BME280;66481;51.332;22.804;2024-03-07T05:56:41;100335.69;;;1.12;86.90
77410;BME280;66481;51.332;22.804;2024-03-07T06:00:46;100323.31;;;1.20;85.64
77410;BME280;66481;51.332;22.804;2024-03-07T06:04:50;100325.88;;;1.56;84.48
77410;BME280;66481;51.332;22.804;2024-03-07T06:08:51;100327.00;;;1.79;82.63
77410;BME280;66481;51.332;22.804;2024-03-07T06:12:55;100338.31;;;2.09;81.48
77410;BME280;66481;51.332;22.804;2024-03-07T06:17:00;100330.59;;;2.36;79.94
77410;BME280;66481;51.332;22.804;2024-03-07T06:21:02;100327.34;;;2.56;79.05
77410;BME280;66481;51.332;22.804;2024-03-07T06:25:05;100337.63;;;2.90;77.52
77410;BME280;66481;51.332;22.804;2024-03-07T06:29:14;100327.91;;;2.67;77.52
77410;BME280;66481;51.332;22.804;2024-03-07T06:33:19;100342.25;;;3.09;77.23
77410;BME280;66481;51.332;22.804;2024-03-07T06:37:21;100339.69;;;3.07;77.00
77410;BME280;66481;51.332;22.804;2024-03-07T06:41:22;100325.78;;;3.32;75.33
77410;BME280;66481;51.332;22.804;2024-03-07T06:45:23;100336.56;;;3.48;74.60
77410;BME280;66481;51.332;22.804;2024-03-07T06:49:25;100324.72;;;3.63;73.50
77410;BME280;66481;51.332;22.804;2024-03-07T06:53:26;100337.81;;;3.88;73.34
77410;BME280;66481;51.332;22.804;2024-03-07T06:57:29;100310.56;;;3.68;72.43
77410;BME280;66481;51.332;22.804;2024-03-07T07:01:30;100287.72;;;3.23;71.69
77410;BME280;66481;51.332;22.804;2024-03-07T07:05:32;100311.75;;;3.34;72.47
77410;BME280;66481;51.332;22.804;2024-03-07T07:09:36;100314.97;;;3.43;72.51
77410;BME280;66481;51.332;22.804;2024-03-07T07:13:37;100326.41;;;3.65;72.07
77410;BME280;66481;51.332;22.804;2024-03-07T07:17:40;100318.75;;;3.34;72.30
77410;BME280;66481;51.332;22.804;2024-03-07T07:21:41;100313.19;;;3.68;71.45
77410;BME280;66481;51.332;22.804;2024-03-07T07:25:43;100297.75;;;3.35;70.43
77410;BME280;66481;51.332;22.804;2024-03-07T07:29:44;100331.06;;;4.29;69.54
77410;BME280;66481;51.332;22.804;2024-03-07T07:33:46;100275.72;;;3.91;68.07
77410;BME280;66481;51.332;22.804;2024-03-07T07:37:49;100333.81;;;4.48;68.00
77410;BME280;66481;51.332;22.804;2024-03-07T07:41:51;100279.59;;;2.24;71.23
77410;BME280;66481;51.332;22.804;2024-03-07T07:45:52;100342.56;;;3.26;73.42
77410;BME280;66481;51.332;22.804;2024-03-07T07:49:55;100294.78;;;2.39;72.89
77410;BME280;66481;51.332;22.804;2024-03-07T07:53:56;100297.06;;;1.28;75.50
77410;BME280;66481;51.332;22.804;2024-03-07T07:57:59;100343.97;;;0.93;78.10
77410;BME280;66481;51.332;22.804;2024-03-07T08:02:01;100354.19;;;0.64;79.44
77410;BME280;66481;51.332;22.804;2024-03-07T08:06:02;100363.38;;;0.41;80.52
77410;BME280;66481;51.332;22.804;2024-03-07T08:10:04;100375.31;;;0.50;80.99
77410;BME280;66481;51.332;22.804;2024-03-07T08:14:05;100385.88;;;0.44;81.74
77410;BME280;66481;51.332;22.804;2024-03-07T08:18:08;100375.88;;;0.24;82.41
77410;BME280;66481;51.332;22.804;2024-03-07T08:22:09;100396.75;;;0.21;82.48
77410;BME280;66481;51.332;22.804;2024-03-07T08:26:10;100396.78;;;0.19;82.68
77410;BME280;66481;51.332;22.804;2024-03-07T08:30:12;100404.47;;;0.25;83.17
77410;BME280;66481;51.332;22.804;2024-03-07T08:34:16;100398.44;;;0.25;82.61
77410;BME280;66481;51.332;22.804;2024-03-07T08:38:17;100403.22;;;0.43;83.33
77410;BME280;66481;51.332;22.804;2024-03-07T08:42:18;100401.75;;;0.33;83.08
77410;BME280;66481;51.332;22.804;2024-03-07T08:46:20;100402.88;;;0.20;83.41
77410;BME280;66481;51.332;22.804;2024-03-07T08:50:22;100408.84;;;0.25;83.35
77410;BME280;66481;51.332;22.804;2024-03-07T08:54:23;100407.78;;;0.33;83.70
77410;BME280;66481;51.332;22.804;2024-03-07T08:58:25;100386.34;;;0.21;83.39
77410;BME280;66481;51.332;22.804;2024-03-07T09:02:26;100400.31;;;0.16;83.31
77410;BME280;66481;51.332;22.804;2024-03-07T09:06:27;100407.16;;;0.21;83.29
77410;BME280;66481;51.332;22.804;2024-03-07T09:10:29;100411.28;;;0.32;84.06
77410;BME280;66481;51.332;22.804;2024-03-07T09:14:33;100405.19;;;0.33;84.10
77410;BME280;66481;51.332;22.804;2024-03-07T09:18:34;100406.13;;;0.29;83.44
77410;BME280;66481;51.332;22.804;2024-03-07T09:22:35;100402.59;;;0.33;83.15
77410;BME280;66481;51.332;22.804;2024-03-07T09:26:37;100414.53;;;0.44;83.44
77410;BME280;66481;51.332;22.804;2024-03-07T09:30:38;100400.91;;;0.29;82.64
77410;BME280;66481;51.332;22.804;2024-03-07T09:34:40;100411.88;;;0.47;83.29
77410;BME280;66481;51.332;22.804;2024-03-07T09:38:42;100402.56;;;0.35;82.46
77410;BME280;66481;51.332;22.804;2024-03-07T09:42:49;100407.06;;;0.27;82.55
77410;BME280;66481;51.332;22.804;2024-03-07T09:46:55;100405.44;;;0.21;82.66
77410;BME280;66481;51.332;22.804;2024-03-07T09:50:58;100413.00;;;0.33;82.56
77410;BME280;66481;51.332;22.804;2024-03-07T09:55:01;100404.22;;;0.37;82.51
77410;BME280;66481;51.332;22.804;2024-03-07T09:59:04;100393.19;;;0.26;81.85
77410;BME280;66481;51.332;22.804;2024-03-07T10:03:09;100407.13;;;0.22;81.62
77410;BME280;66481;51.332;22.804;2024-03-07T10:07:11;100414.53;;;0.44;81.62
77410;BME280;66481;51.332;22.804;2024-03-07T10:11:14;100416.16;;;0.48;81.98
77410;BME280;66481;51.332;22.804;2024-03-07T10:15:15;100437.34;;;0.73;82.62
77410;BME280;66481;51.332;22.804;2024-03-07T10:19:18;100413.28;;;0.60;81.58
77410;BME280;66481;51.332;22.804;2024-03-07T10:23:19;100413.28;;;0.60;81.77
77410;BME280;66481;51.332;22.804;2024-03-07T10:27:23;100400.31;;;0.59;81.08
77410;BME280;66481;51.332;22.804;2024-03-07T10:31:29;100416.63;;;0.67;80.89
77410;BME280;66481;51.332;22.804;2024-03-07T10:35:30;100413.13;;;0.69;80.85
77410;BME280;66481;51.332;22.804;2024-03-07T10:39:31;100416.84;;;0.97;80.92
77410;BME280;66481;51.332;22.804;2024-03-07T10:43:36;100430.47;;;1.09;81.38
77410;BME280;66481;51.332;22.804;2024-03-07T10:47:40;100434.03;;;1.41;81.15
77410;BME280;66481;51.332;22.804;2024-03-07T10:51:46;100408.00;;;1.40;79.21
77410;BME280;66481;51.332;22.804;2024-03-07T11:00:26;100411.38;;;1.78;78.55
77410;BME280;66481;51.332;22.804;2024-03-07T11:04:33;100396.22;;;1.59;78.06
77410;BME280;66481;51.332;22.804;2024-03-07T11:08:37;100365.88;;;0.85;78.10
77410;BME280;66481;51.332;22.804;2024-03-07T11:12:39;100416.75;;;1.73;79.04
77410;BME280;66481;51.332;22.804;2024-03-07T11:16:41;100431.16;;;4.14;73.56
77410;BME280;66481;51.332;22.804;2024-03-07T11:20:43;100378.34;;;4.94;68.63
77410;BME280;66481;51.332;22.804;2024-03-07T11:25:00;100335.59;;;4.70;66.57
77410;BME280;66481;51.332;22.804;2024-03-07T11:38:15;100315.13;;;4.80;66.33
77410;BME280;66481;51.332;22.804;2024-03-07T11:42:25;100300.00;;;4.19;66.20
77410;BME280;66481;51.332;22.804;2024-03-07T11:46:28;100307.63;;;4.25;66.76
77410;BME280;66481;51.332;22.804;2024-03-07T11:50:33;100294.75;;;3.97;67.97
77410;BME280;66481;51.332;22.804;2024-03-07T11:54:38;100318.84;;;4.52;67.58
77410;BME280;66481;51.332;22.804;2024-03-07T11:58:44;100304.31;;;4.43;67.47
77410;BME280;66481;51.332;22.804;2024-03-07T12:02:46;100297.25;;;4.45;67.98
77410;BME280;66481;51.332;22.804;2024-03-07T12:06:52;100272.75;;;3.77;67.22
77410;BME280;66481;51.332;22.804;2024-03-07T12:10:53;100321.44;;;4.52;67.91
77410;BME280;66481;51.332;22.804;2024-03-07T12:14:57;100285.50;;;4.56;66.23
77410;BME280;66481;51.332;22.804;2024-03-07T12:18:59;100296.56;;;4.84;66.59
77410;BME280;66481;51.332;22.804;2024-03-07T12:23:00;100252.84;;;4.19;65.81
77410;BME280;66481;51.332;22.804;2024-03-07T12:27:10;100283.03;;;4.51;67.28
77410;BME280;66481;51.332;22.804;2024-03-07T12:31:12;100264.59;;;3.61;68.75
77410;BME280;66481;51.332;22.804;2024-03-07T12:35:20;100300.19;;;4.14;69.54
77410;BME280;66481;51.332;22.804;2024-03-07T12:39:26;100267.25;;;4.30;67.67
77410;BME280;66481;51.332;22.804;2024-03-07T12:43:31;100251.53;;;4.08;66.61
77410;BME280;66481;51.332;22.804;2024-03-07T12:47:34;100251.41;;;3.64;68.07
77410;BME280;66481;51.332;22.804;2024-03-07T12:51:36;100277.66;;;3.86;68.24
77410;BME280;66481;51.332;22.804;2024-03-07T12:55:41;100258.75;;;3.29;69.22
77410;BME280;66481;51.332;22.804;2024-03-07T12:59:42;100266.44;;;3.34;69.26
77410;BME280;66481;51.332;22.804;2024-03-07T13:03:44;100267.47;;;3.55;69.32
77410;BME280;66481;51.332;22.804;2024-03-07T13:07:48;100268.75;;;3.67;68.72
77410;BME280;66481;51.332;22.804;2024-03-07T13:11:49;100276.56;;;3.92;68.99
77410;BME280;66481;51.332;22.804;2024-03-07T13:15:54;100240.38;;;3.56;68.30
77410;BME280;66481;51.332;22.804;2024-03-07T13:19:58;100306.25;;;3.42;72.64
77410;BME280;66481;51.332;22.804;2024-03-07T13:24:01;100281.72;;;3.70;70.00
77410;BME280;66481;51.332;22.804;2024-03-07T13:28:09;100277.88;;;3.56;70.35
77410;BME280;66481;51.332;22.804;2024-03-07T13:32:14;100288.28;;;3.33;72.29
77410;BME280;66481;51.332;22.804;2024-03-07T13:36:15;100288.75;;;3.69;71.06
77410;BME280;66481;51.332;22.804;2024-03-07T13:40:25;100291.25;;;4.20;70.55
77410;BME280;66481;51.332;22.804;2024-03-07T13:44:27;100261.31;;;4.03;69.18
77410;BME280;66481;51.332;22.804;2024-03-07T13:48:29;100223.75;;;3.57;68.36
77410;BME280;66481;51.332;22.804;2024-03-07T13:52:31;100235.88;;;3.36;68.76
77410;BME280;66481;51.332;22.804;2024-03-07T13:56:42;100253.09;;;3.42;69.94
77410;BME280;66481;51.332;22.804;2024-03-07T14:00:55;100242.00;;;3.35;69.35
77410;BME280;66481;51.332;22.804;2024-03-07T14:18:49;100258.84;;;3.01;71.54
77410;BME280;66481;51.332;22.804;2024-03-07T14:23:19;100281.22;;;3.10;73.10
77410;BME280;66481;51.332;22.804;2024-03-07T14:27:35;100258.97;;;2.98;71.95
77410;BME280;66481;51.332;22.804;2024-03-07T14:31:39;100278.50;;;3.13;72.91
77410;BME280;66481;51.332;22.804;2024-03-07T14:40:14;100255.09;;;3.10;71.83
77410;BME280;66481;51.332;22.804;2024-03-07T14:44:17;100274.84;;;3.18;72.90
77410;BME280;66481;51.332;22.804;2024-03-07T14:48:19;100263.25;;;2.74;73.71
77410;BME280;66481;51.332;22.804;2024-03-07T14:52:21;100269.56;;;2.67;74.64
77410;BME280;66481;51.332;22.804;2024-03-07T14:56:23;100270.66;;;2.59;75.06
77410;BME280;66481;51.332;22.804;2024-03-07T15:00:26;100257.13;;;2.47;74.88
77410;BME280;66481;51.332;22.804;2024-03-07T15:04:30;100278.16;;;2.70;74.75
77410;BME280;66481;51.332;22.804;2024-03-07T15:08:33;100278.41;;;2.62;75.38
77410;BME280;66481;51.332;22.804;2024-03-07T15:12:34;100263.59;;;2.35;75.08
77410;BME280;66481;51.332;22.804;2024-03-07T15:16:36;100257.25;;;2.42;74.59
77410;BME280;66481;51.332;22.804;2024-03-07T15:20:41;100244.94;;;2.19;75.48
77410;BME280;66481;51.332;22.804;2024-03-07T15:24:43;100253.56;;;2.21;75.08
77410;BME280;66481;51.332;22.804;2024-03-07T15:28:44;100272.88;;;2.15;76.73
77410;BME280;66481;51.332;22.804;2024-03-07T15:32:46;100265.56;;;1.98;77.10
77410;BME280;66481;51.332;22.804;2024-03-07T15:36:59;100273.66;;;1.89;77.48
77410;BME280;66481;51.332;22.804;2024-03-07T15:41:02;100283.47;;;1.81;78.64
77410;BME280;66481;51.332;22.804;2024-03-07T15:45:04;100285.50;;;1.69;78.80
77410;BME280;66481;51.332;22.804;2024-03-07T15:49:12;100288.41;;;1.59;79.84
77410;BME280;66481;51.332;22.804;2024-03-07T15:53:14;100281.78;;;1.47;80.06
77410;BME280;66481;51.332;22.804;2024-03-07T15:57:16;100295.91;;;1.38;80.54
77410;BME280;66481;51.332;22.804;2024-03-07T16:01:17;100304.00;;;1.29;81.52
77410;BME280;66481;51.332;22.804;2024-03-07T16:05:20;100303.72;;;1.05;82.68
77410;BME280;66481;51.332;22.804;2024-03-07T16:09:24;100315.41;;;0.89;82.67
77410;BME280;66481;51.332;22.804;2024-03-07T16:13:26;100319.25;;;0.72;83.89
77410;BME280;66481;51.332;22.804;2024-03-07T16:17:28;100327.38;;;0.60;85.00
77410;BME280;66481;51.332;22.804;2024-03-07T16:21:30;100328.69;;;0.41;85.61
77410;BME280;66481;51.332;22.804;2024-03-07T16:25:34;100344.38;;;0.36;86.17
77410;BME280;66481;51.332;22.804;2024-03-07T16:29:35;100349.00;;;0.23;86.49
77410;BME280;66481;51.332;22.804;2024-03-07T16:33:36;100361.03;;;0.29;87.39
77410;BME280;66481;51.332;22.804;2024-03-07T16:37:39;100360.50;;;0.13;88.57
77410;BME280;66481;51.332;22.804;2024-03-07T16:41:41;100361.66;;;-0.02;88.41
77410;BME280;66481;51.332;22.804;2024-03-07T16:45:42;100368.16;;;-0.25;89.65
77410;BME280;66481;51.332;22.804;2024-03-07T16:49:44;100374.34;;;-0.32;90.59
77410;BME280;66481;51.332;22.804;2024-03-07T16:53:46;100377.00;;;-0.35;91.57
77410;BME280;66481;51.332;22.804;2024-03-07T16:57:50;100376.44;;;-0.51;91.93
77410;BME280;66481;51.332;22.804;2024-03-07T17:01:52;100379.31;;;-0.68;93.21
77410;BME280;66481;51.332;22.804;2024-03-07T17:05:53;100374.22;;;-0.72;92.99
77410;BME280;66481;51.332;22.804;2024-03-07T17:09:55;100383.81;;;-0.78;93.55
77410;BME280;66481;51.332;22.804;2024-03-07T17:13:56;100383.94;;;-0.85;94.26
77410;BME280;66481;51.332;22.804;2024-03-07T17:17:58;100375.53;;;-1.01;94.49
77410;BME280;66481;51.332;22.804;2024-03-07T17:22:00;100384.19;;;-1.02;94.37
77410;BME280;66481;51.332;22.804;2024-03-07T17:26:01;100384.31;;;-1.10;94.79
77410;BME280;66481;51.332;22.804;2024-03-07T17:30:06;100382.69;;;-1.16;94.90
77410;BME280;66481;51.332;22.804;2024-03-07T17:34:07;100381.88;;;-1.19;94.69
77410;BME280;66481;51.332;22.804;2024-03-07T17:38:11;100386.94;;;-1.13;95.80
77410;BME280;66481;51.332;22.804;2024-03-07T17:42:15;100388.94;;;-1.30;96.31
77410;BME280;66481;51.332;22.804;2024-03-07T17:46:15;100382.28;;;-1.48;96.57
77410;BME280;66481;51.332;22.804;2024-03-07T17:50:21;100394.50;;;-1.57;97.20
77410;BME280;66481;51.332;22.804;2024-03-07T17:54:24;100386.81;;;-1.64;97.64
77410;BME280;66481;51.332;22.804;2024-03-07T17:58:32;100385.28;;;-1.82;97.63
77410;BME280;66481;51.332;22.804;2024-03-07T18:02:38;100394.88;;;-1.89;98.58
77410;BME280;66481;51.332;22.804;2024-03-07T18:06:40;100393.19;;;-1.93;98.24
77410;BME280;66481;51.332;22.804;2024-03-07T18:10:41;100401.69;;;-1.82;98.30
77410;BME280;66481;51.332;22.804;2024-03-07T18:14:46;100396.63;;;-1.90;98.62
77410;BME280;66481;51.332;22.804;2024-03-07T18:18:52;100399.22;;;-1.91;99.07
77410;BME280;66481;51.332;22.804;2024-03-07T18:22:59;100395.81;;;-1.95;99.20
77410;BME280;66481;51.332;22.804;2024-03-07T18:27:01;100401.13;;;-2.07;99.23
77410;BME280;66481;51.332;22.804;2024-03-07T18:31:14;100398.53;;;-2.07;98.77
77410;BME280;66481;51.332;22.804;2024-03-07T18:35:15;100397.72;;;-2.11;98.78
77410;BME280;66481;51.332;22.804;2024-03-07T18:39:23;100396.91;;;-2.14;98.56
77410;BME280;66481;51.332;22.804;2024-03-07T18:43:24;100400.47;;;-2.26;98.54
77410;BME280;66481;51.332;22.804;2024-03-07T18:47:29;100398.75;;;-2.29;99.16
77410;BME280;66481;51.332;22.804;2024-03-07T18:51:31;100403.94;;;-2.29;98.71
77410;BME280;66481;51.332;22.804;2024-03-07T18:55:33;100403.88;;;-2.22;98.92
77410;BME280;66481;51.332;22.804;2024-03-07T18:59:36;100403.91;;;-2.25;99.14
77410;BME280;66481;51.332;22.804;2024-03-07T19:03:38;100415.22;;;-2.34;99.29
77410;BME280;66481;51.332;22.804;2024-03-07T19:07:40;100410.13;;;-2.40;98.97
77410;BME280;66481;51.332;22.804;2024-03-07T19:11:44;100410.13;;;-2.42;99.27
77410;BME280;66481;51.332;22.804;2024-03-07T19:15:52;100418.75;;;-2.41;99.75
77410;BME280;66481;51.332;22.804;2024-03-07T19:19:56;100410.28;;;-2.62;99.43
77410;BME280;66481;51.332;22.804;2024-03-07T19:23:59;100423.22;;;-2.57;100.00
77410;BME280;66481;51.332;22.804;2024-03-07T19:28:01;100423.25;;;-2.65;100.00
77410;BME280;66481;51.332;22.804;2024-03-07T19:32:04;100429.28;;;-2.61;100.00
77410;BME280;66481;51.332;22.804;2024-03-07T19:36:10;100425.88;;;-2.67;100.00
77410;BME280;66481;51.332;22.804;2024-03-07T19:40:15;100431.09;;;-2.68;100.00
77410;BME280;66481;51.332;22.804;2024-03-07T19:44:20;100433.72;;;-2.74;100.00
77410;BME280;66481;51.332;22.804;2024-03-07T19:48:22;100420.88;;;-2.91;100.00
77410;BME280;66481;51.332;22.804;2024-03-07T19:52:25;100425.25;;;-2.98;100.00
77410;BME280;66481;51.332;22.804;2024-03-07T19:56:26;100425.28;;;-3.01;100.00
77410;BME280;66481;51.332;22.804;2024-03-07T20:00:29;100420.13;;;-3.04;100.00
77410;BME280;66481;51.332;22.804;2024-03-07T20:04:36;100427.81;;;-2.93;100.00
77410;BME280;66481;51.332;22.804;2024-03-07T20:08:37;100425.22;;;-2.95;100.00
77410;BME280;66481;51.332;22.804;2024-03-07T20:12:41;100418.31;;;-2.93;100.00
77410;BME280;66481;51.332;22.804;2024-03-07T20:16:44;100417.44;;;-2.93;100.00
77410;BME280;66481;51.332;22.804;2024-03-07T20:20:48;100414.88;;;-2.96;100.00
77410;BME280;66481;51.332;22.804;2024-03-07T20:24:51;100411.53;;;-3.12;100.00
77410;BME280;66481;51.332;22.804;2024-03-07T20:28:53;100421.88;;;-3.11;100.00
77410;BME280;66481;51.332;22.804;2024-03-07T20:32:54;100421.88;;;-3.09;100.00
77410;BME280;66481;51.332;22.804;2024-03-07T20:36:55;100414.97;;;-3.13;100.00
77410;BME280;66481;51.332;22.804;2024-03-07T20:40:57;100427.88;;;-3.01;100.00
77410;BME280;66481;51.332;22.804;2024-03-07T20:45:02;100420.19;;;-3.16;100.00
77410;BME280;66481;51.332;22.804;2024-03-07T20:49:09;100412.38;;;-3.12;100.00
77410;BME280;66481;51.332;22.804;2024-03-07T20:53:12;100419.25;;;-3.05;100.00
77410;BME280;66481;51.332;22.804;2024-03-07T20:57:16;100419.22;;;-3.03;100.00
77410;BME280;66481;51.332;22.804;2024-03-07T21:01:20;100409.81;;;-3.13;100.00
77410;BME280;66481;51.332;22.804;2024-03-07T21:05:22;100414.97;;;-3.09;100.00
77410;BME280;66481;51.332;22.804;2024-03-07T21:09:24;100410.72;;;-3.22;100.00
77410;BME280;66481;51.332;22.804;2024-03-07T21:13:26;100412.47;;;-3.23;100.00
77410;BME280;66481;51.332;22.804;2024-03-07T21:17:28;100419.31;;;-3.17;100.00
77410;BME280;66481;51.332;22.804;2024-03-07T21:21:30;100416.81;;;-3.28;100.00
77410;BME280;66481;51.332;22.804;2024-03-07T21:25:33;100424.56;;;-3.29;100.00
77410;BME280;66481;51.332;22.804;2024-03-07T21:29:38;100419.41;;;-3.31;100.00